Strona główna
METAR-TAF:

METAR-TAF

Lotnisko :

Olean, Nowy Jork, Stany Zjednoczone

Szerokość geograficzna: 42-14-28N, Długość geograficzna: 078-22-17W, wysokość: 651 m

Aktualna obserwacja pogody

Raport powstał 10 minut temu, godzina 11:35 UTC
Wiatr 4 kt od zachodnio-południowy zachód
Temperatura 18°C
Wilgotność 100%
Ciśnienie 1011 hPa
Widzialność: 16.1 km
Przerywane chmury na wysokości 1000 ft
Przerywane chmury na wysokości 1800 ft
Zachmurzenie całkowite na wysokości 5000 ft

METAR: KOLE 251135Z AUTO 24004KT 10SM BKN010 BKN018 OVC050 18/18 A2985 RMK AO2

czas: 07:45 (11:45 UTC)


TAF: brakujący

Obserwacja i prognoza pogody dla ponad 4000 lotnisk (raport METAR i TAF).

Dostępne stacje oznaczono żółtymi i czerwonymi punktami na mapie.

Najedź kursorem aby zobaczyć nazwę stacji.

Kliknij aby zobaczyć obserwacje i prognozy pogody.

Aby zmienić mapę: kliknij na zielony przycisk z czarnym krzyżykiem, aby powiększyć; na zielony przycisk z myślnikiem, aby pomniejszyć; na zielone strzałki, aby przejść do map sąsiednich.


METAR-TAF: